sensor_id;sensor_type;location;lat;lon;timestamp;temperature;humidity
27439;DHT22;14887;51.252;7.470;2024-01-15T00:02:12;-1.50;1.00
27439;DHT22;14887;51.252;7.470;2024-01-15T00:04:38;-1.40;1.00
27439;DHT22;14887;51.252;7.470;2024-01-15T00:07:04;-1.40;1.00
27439;DHT22;14887;51.252;7.470;2024-01-15T00:09:30;-1.40;1.00
27439;DHT22;14887;51.252;7.470;2024-01-15T00:11:55;-1.40;1.00
27439;DHT22;14887;51.252;7.470;2024-01-15T00:14:21;-1.40;1.00
27439;DHT22;14887;51.252;7.470;2024-01-15T00:16:47;-1.40;1.00
27439;DHT22;14887;51.252;7.470;2024-01-15T00:19:14;-1.40;1.00
27439;DHT22;14887;51.252;7.470;2024-01-15T00:21:40;-1.30;1.00
27439;DHT22;14887;51.252;7.470;2024-01-15T00:24:05;-1.30;1.00
27439;DHT22;14887;51.252;7.470;2024-01-15T00:26:31;-1.30;1.00
27439;DHT22;14887;51.252;7.470;2024-01-15T00:28:56;-1.30;1.00
27439;DHT22;14887;51.252;7.470;2024-01-15T00:31:22;-1.30;1.00
27439;DHT22;14887;51.252;7.470;2024-01-15T00:33:47;-1.30;1.00
27439;DHT22;14887;51.252;7.470;2024-01-15T00:36:13;-1.30;1.00
27439;DHT22;14887;51.252;7.470;2024-01-15T00:38:39;-1.30;1.00
27439;DHT22;14887;51.252;7.470;2024-01-15T00:41:05;-1.10;1.00
27439;DHT22;14887;51.252;7.470;2024-01-15T00:43:31;-1.30;1.00
27439;DHT22;14887;51.252;7.470;2024-01-15T00:45:56;-1.10;1.00
27439;DHT22;14887;51.252;7.470;2024-01-15T00:48:22;-1.30;1.00
27439;DHT22;14887;51.252;7.470;2024-01-15T00:50:47;-1.30;1.00
27439;DHT22;14887;51.252;7.470;2024-01-15T00:53:13;-1.20;1.00
27439;DHT22;14887;51.252;7.470;2024-01-15T00:55:38;-1.20;1.00
27439;DHT22;14887;51.252;7.470;2024-01-15T00:58:04;-1.20;1.00
27439;DHT22;14887;51.252;7.470;2024-01-15T01:00:29;-1.20;1.00
27439;DHT22;14887;51.252;7.470;2024-01-15T01:02:55;-1.30;1.00
27439;DHT22;14887;51.252;7.470;2024-01-15T01:05:21;-1.30;1.00
27439;DHT22;14887;51.252;7.470;2024-01-15T01:07:46;-1.20;1.00
27439;DHT22;14887;51.252;7.470;2024-01-15T01:10:14;-1.30;1.00
27439;DHT22;14887;51.252;7.470;2024-01-15T01:12:40;-1.20;1.00
27439;DHT22;14887;51.252;7.470;2024-01-15T01:15:06;-1.20;1.00
27439;DHT22;14887;51.252;7.470;2024-01-15T01:17:32;-1.20;1.00
27439;DHT22;14887;51.252;7.470;2024-01-15T01:19:58;-1.30;1.00
27439;DHT22;14887;51.252;7.470;2024-01-15T01:22:23;-1.20;1.00
27439;DHT22;14887;51.252;7.470;2024-01-15T01:24:49;-1.20;1.00
27439;DHT22;14887;51.252;7.470;2024-01-15T01:27:14;-1.20;1.00
27439;DHT22;14887;51.252;7.470;2024-01-15T01:29:40;-1.20;1.00
27439;DHT22;14887;51.252;7.470;2024-01-15T01:32:06;-1.20;1.00
27439;DHT22;14887;51.252;7.470;2024-01-15T01:34:33;-1.20;1.00
27439;DHT22;14887;51.252;7.470;2024-01-15T01:37:05;-1.20;1.00
27439;DHT22;14887;51.252;7.470;2024-01-15T01:39:30;-1.20;1.00
27439;DHT22;14887;51.252;7.470;2024-01-15T01:41:56;-1.20;1.00
27439;DHT22;14887;51.252;7.470;2024-01-15T01:44:21;-1.20;1.00
27439;DHT22;14887;51.252;7.470;2024-01-15T01:46:47;-1.20;1.00
27439;DHT22;14887;51.252;7.470;2024-01-15T01:49:12;-1.20;1.00
27439;DHT22;14887;51.252;7.470;2024-01-15T01:51:38;-1.20;1.00
27439;DHT22;14887;51.252;7.470;2024-01-15T01:54:05;-1.20;1.00
27439;DHT22;14887;51.252;7.470;2024-01-15T01:56:32;-1.20;1.00
27439;DHT22;14887;51.252;7.470;2024-01-15T01:58:58;-1.10;1.00
27439;DHT22;14887;51.252;7.470;2024-01-15T02:01:23;-1.10;1.00
27439;DHT22;14887;51.252;7.470;2024-01-15T02:03:49;-1.20;1.00
27439;DHT22;14887;51.252;7.470;2024-01-15T02:06:15;-1.20;1.00
27439;DHT22;14887;51.252;7.470;2024-01-15T02:08:43;-1.10;1.00
27439;DHT22;14887;51.252;7.470;2024-01-15T02:11:09;-1.10;1.00
27439;DHT22;14887;51.252;7.470;2024-01-15T02:13:34;-1.10;1.00
27439;DHT22;14887;51.252;7.470;2024-01-15T02:16:00;-1.10;1.00
27439;DHT22;14887;51.252;7.470;2024-01-15T02:18:25;-1.10;1.00
27439;DHT22;14887;51.252;7.470;2024-01-15T02:20:51;-1.10;1.00
27439;DHT22;14887;51.252;7.470;2024-01-15T02:23:16;-1.10;1.00
27439;DHT22;14887;51.252;7.470;2024-01-15T02:25:43;-1.10;1.00
27439;DHT22;14887;51.252;7.470;2024-01-15T02:28:11;-1.00;1.00
27439;DHT22;14887;51.252;7.470;2024-01-15T02:30:40;-1.10;1.00
27439;DHT22;14887;51.252;7.470;2024-01-15T02:33:07;-1.10;1.00
27439;DHT22;14887;51.252;7.470;2024-01-15T02:35:33;-1.10;1.00
27439;DHT22;14887;51.252;7.470;2024-01-15T02:37:59;-1.10;1.00
27439;DHT22;14887;51.252;7.470;2024-01-15T02:40:25;-1.10;1.00
27439;DHT22;14887;51.252;7.470;2024-01-15T02:42:50;-1.10;1.00
27439;DHT22;14887;51.252;7.470;2024-01-15T02:45:16;-1.10;1.00
27439;DHT22;14887;51.252;7.470;2024-01-15T02:47:42;-1.10;1.00
27439;DHT22;14887;51.252;7.470;2024-01-15T02:50:08;-1.10;1.00
27439;DHT22;14887;51.252;7.470;2024-01-15T02:52:33;-1.10;1.00
27439;DHT22;14887;51.252;7.470;2024-01-15T02:54:59;-1.10;1.00
27439;DHT22;14887;51.252;7.470;2024-01-15T02:57:24;-1.10;1.00
27439;DHT22;14887;51.252;7.470;2024-01-15T02:59:50;-1.10;1.00
27439;DHT22;14887;51.252;7.470;2024-01-15T03:02:15;-1.10;1.00
27439;DHT22;14887;51.252;7.470;2024-01-15T03:04:44;-1.10;1.00
27439;DHT22;14887;51.252;7.470;2024-01-15T03:07:10;-1.10;1.00
27439;DHT22;14887;51.252;7.470;2024-01-15T03:09:35;-1.00;1.00
27439;DHT22;14887;51.252;7.470;2024-01-15T03:12:01;-1.00;1.00
27439;DHT22;14887;51.252;7.470;2024-01-15T03:14:27;-1.10;1.00
27439;DHT22;14887;51.252;7.470;2024-01-15T03:16:53;-1.00;1.00
27439;DHT22;14887;51.252;7.470;2024-01-15T03:19:18;-1.00;1.00
27439;DHT22;14887;51.252;7.470;2024-01-15T03:21:44;-1.00;1.00
27439;DHT22;14887;51.252;7.470;2024-01-15T03:24:09;-1.00;1.00
27439;DHT22;14887;51.252;7.470;2024-01-15T03:26:35;-1.00;1.00
27439;DHT22;14887;51.252;7.470;2024-01-15T03:29:01;-1.00;1.00
27439;DHT22;14887;51.252;7.470;2024-01-15T03:31:26;-1.00;1.00
27439;DHT22;14887;51.252;7.470;2024-01-15T03:33:52;-1.00;1.00
27439;DHT22;14887;51.252;7.470;2024-01-15T03:36:17;-1.00;1.00
27439;DHT22;14887;51.252;7.470;2024-01-15T03:38:43;-1.10;1.00
27439;DHT22;14887;51.252;7.470;2024-01-15T03:41:09;-1.10;1.00
27439;DHT22;14887;51.252;7.470;2024-01-15T03:43:34;-1.00;1.00
27439;DHT22;14887;51.252;7.470;2024-01-15T03:46:00;-1.00;1.00
27439;DHT22;14887;51.252;7.470;2024-01-15T03:48:25;-1.00;1.00
27439;DHT22;14887;51.252;7.470;2024-01-15T03:50:51;-1.00;1.00
27439;DHT22;14887;51.252;7.470;2024-01-15T03:53:17;-1.00;1.00
27439;DHT22;14887;51.252;7.470;2024-01-15T03:55:42;-1.00;1.00
27439;DHT22;14887;51.252;7.470;2024-01-15T03:58:08;-1.00;1.00
27439;DHT22;14887;51.252;7.470;2024-01-15T04:00:34;-1.00;1.00
27439;DHT22;14887;51.252;7.470;2024-01-15T04:02:59;-1.00;1.00
27439;DHT22;14887;51.252;7.470;2024-01-15T04:05:25;-1.00;1.00
27439;DHT22;14887;51.252;7.470;2024-01-15T04:07:51;-1.00;1.00
27439;DHT22;14887;51.252;7.470;2024-01-15T04:10:17;-1.00;1.00
27439;DHT22;14887;51.252;7.470;2024-01-15T04:12:42;-1.00;1.00
27439;DHT22;14887;51.252;7.470;2024-01-15T04:15:08;-1.00;1.00
27439;DHT22;14887;51.252;7.470;2024-01-15T04:17:34;-1.00;1.00
27439;DHT22;14887;51.252;7.470;2024-01-15T04:20:00;-1.00;1.00
27439;DHT22;14887;51.252;7.470;2024-01-15T04:22:27;-1.00;1.00
27439;DHT22;14887;51.252;7.470;2024-01-15T04:24:52;-1.00;1.00
27439;DHT22;14887;51.252;7.470;2024-01-15T04:27:18;-1.00;1.00
27439;DHT22;14887;51.252;7.470;2024-01-15T04:29:43;-0.80;1.00
27439;DHT22;14887;51.252;7.470;2024-01-15T04:32:10;-1.00;1.00
27439;DHT22;14887;51.252;7.470;2024-01-15T04:34:35;-1.00;1.00
27439;DHT22;14887;51.252;7.470;2024-01-15T04:37:01;-1.00;1.00
27439;DHT22;14887;51.252;7.470;2024-01-15T04:39:27;-1.00;1.00
27439;DHT22;14887;51.252;7.470;2024-01-15T04:41:52;-1.00;1.00
27439;DHT22;14887;51.252;7.470;2024-01-15T04:44:18;-1.00;1.00
27439;DHT22;14887;51.252;7.470;2024-01-15T04:46:44;-0.90;1.00
27439;DHT22;14887;51.252;7.470;2024-01-15T04:49:10;-0.90;1.00
27439;DHT22;14887;51.252;7.470;2024-01-15T04:51:36;-0.90;1.00
27439;DHT22;14887;51.252;7.470;2024-01-15T04:54:01;-0.90;1.00
27439;DHT22;14887;51.252;7.470;2024-01-15T04:56:27;-0.90;1.00
27439;DHT22;14887;51.252;7.470;2024-01-15T04:58:53;-0.90;1.00
27439;DHT22;14887;51.252;7.470;2024-01-15T05:01:18;-0.90;1.00
27439;DHT22;14887;51.252;7.470;2024-01-15T05:03:44;-0.90;1.00
27439;DHT22;14887;51.252;7.470;2024-01-15T05:06:09;-0.90;1.00
27439;DHT22;14887;51.252;7.470;2024-01-15T05:08:35;-0.90;1.00
27439;DHT22;14887;51.252;7.470;2024-01-15T05:11:00;-0.90;1.00
27439;DHT22;14887;51.252;7.470;2024-01-15T05:13:26;-0.90;1.00
27439;DHT22;14887;51.252;7.470;2024-01-15T05:15:52;-1.00;1.00
27439;DHT22;14887;51.252;7.470;2024-01-15T05:18:17;-1.00;1.00
27439;DHT22;14887;51.252;7.470;2024-01-15T05:20:43;-1.00;1.00
27439;DHT22;14887;51.252;7.470;2024-01-15T05:23:08;-1.00;1.00
27439;DHT22;14887;51.252;7.470;2024-01-15T05:25:34;-1.00;1.00
27439;DHT22;14887;51.252;7.470;2024-01-15T05:28:00;-1.00;1.00
27439;DHT22;14887;51.252;7.470;2024-01-15T05:30:25;-1.00;1.00
27439;DHT22;14887;51.252;7.470;2024-01-15T05:32:51;-1.00;1.00
27439;DHT22;14887;51.252;7.470;2024-01-15T05:35:16;-1.00;1.00
27439;DHT22;14887;51.252;7.470;2024-01-15T05:37:44;-1.00;1.00
27439;DHT22;14887;51.252;7.470;2024-01-15T05:40:13;-1.00;1.00
27439;DHT22;14887;51.252;7.470;2024-01-15T05:42:39;-1.00;1.00
27439;DHT22;14887;51.252;7.470;2024-01-15T05:45:05;-1.00;1.00
27439;DHT22;14887;51.252;7.470;2024-01-15T05:47:31;-1.00;1.00
27439;DHT22;14887;51.252;7.470;2024-01-15T05:49:57;-1.00;1.00
27439;DHT22;14887;51.252;7.470;2024-01-15T05:52:23;-1.00;1.00
27439;DHT22;14887;51.252;7.470;2024-01-15T05:54:49;-1.00;1.00
27439;DHT22;14887;51.252;7.470;2024-01-15T05:57:15;-1.00;1.00
27439;DHT22;14887;51.252;7.470;2024-01-15T05:59:42;-1.00;1.00
27439;DHT22;14887;51.252;7.470;2024-01-15T06:02:07;-1.00;1.00
27439;DHT22;14887;51.252;7.470;2024-01-15T06:04:33;-1.00;1.00
27439;DHT22;14887;51.252;7.470;2024-01-15T06:06:58;-1.00;1.00
27439;DHT22;14887;51.252;7.470;2024-01-15T06:09:24;-1.00;1.00
27439;DHT22;14887;51.252;7.470;2024-01-15T06:11:49;-1.00;1.00
27439;DHT22;14887;51.252;7.470;2024-01-15T06:14:15;-1.00;1.00
27439;DHT22;14887;51.252;7.470;2024-01-15T06:16:41;-1.00;1.00
27439;DHT22;14887;51.252;7.470;2024-01-15T06:19:06;-1.00;1.00
27439;DHT22;14887;51.252;7.470;2024-01-15T06:21:32;-1.00;1.00
27439;DHT22;14887;51.252;7.470;2024-01-15T06:23:57;-1.00;1.00
27439;DHT22;14887;51.252;7.470;2024-01-15T06:26:23;-1.00;1.00
27439;DHT22;14887;51.252;7.470;2024-01-15T06:28:49;-1.00;1.00
27439;DHT22;14887;51.252;7.470;2024-01-15T06:31:14;-1.00;1.00
27439;DHT22;14887;51.252;7.470;2024-01-15T06:33:40;-1.00;1.00
27439;DHT22;14887;51.252;7.470;2024-01-15T06:36:06;-1.10;1.00
27439;DHT22;14887;51.252;7.470;2024-01-15T06:38:31;-1.10;1.00
27439;DHT22;14887;51.252;7.470;2024-01-15T06:40:57;-1.00;1.00
27439;DHT22;14887;51.252;7.470;2024-01-15T06:43:23;-1.00;1.00
27439;DHT22;14887;51.252;7.470;2024-01-15T06:45:48;-1.00;1.00
27439;DHT22;14887;51.252;7.470;2024-01-15T06:48:14;-1.00;1.00
27439;DHT22;14887;51.252;7.470;2024-01-15T06:50:44;-1.00;1.00
27439;DHT22;14887;51.252;7.470;2024-01-15T06:53:10;-0.90;1.00
27439;DHT22;14887;51.252;7.470;2024-01-15T06:55:36;-0.90;1.00
27439;DHT22;14887;51.252;7.470;2024-01-15T06:58:02;-0.90;1.00
27439;DHT22;14887;51.252;7.470;2024-01-15T07:00:28;-0.90;1.00
27439;DHT22;14887;51.252;7.470;2024-01-15T07:02:54;-0.90;1.00
27439;DHT22;14887;51.252;7.470;2024-01-15T07:05:20;-0.90;1.00
27439;DHT22;14887;51.252;7.470;2024-01-15T07:07:46;-0.90;1.00
27439;DHT22;14887;51.252;7.470;2024-01-15T07:10:13;-0.90;1.00
27439;DHT22;14887;51.252;7.470;2024-01-15T07:12:38;-0.90;1.00
27439;DHT22;14887;51.252;7.470;2024-01-15T07:15:04;-0.90;1.00
27439;DHT22;14887;51.252;7.470;2024-01-15T07:17:32;-0.90;1.00
27439;DHT22;14887;51.252;7.470;2024-01-15T07:19:58;-0.90;1.00
27439;DHT22;14887;51.252;7.470;2024-01-15T07:22:23;-0.90;1.00
27439;DHT22;14887;51.252;7.470;2024-01-15T07:24:49;-0.90;1.00
27439;DHT22;14887;51.252;7.470;2024-01-15T07:27:14;-0.90;1.00
27439;DHT22;14887;51.252;7.470;2024-01-15T07:29:40;-0.90;1.00
27439;DHT22;14887;51.252;7.470;2024-01-15T07:32:05;-0.80;1.00
27439;DHT22;14887;51.252;7.470;2024-01-15T07:34:32;-0.90;1.00
27439;DHT22;14887;51.252;7.470;2024-01-15T07:36:58;-0.90;1.00
27439;DHT22;14887;51.252;7.470;2024-01-15T07:39:24;-0.80;1.00
27439;DHT22;14887;51.252;7.470;2024-01-15T07:41:51;-0.80;1.00
27439;DHT22;14887;51.252;7.470;2024-01-15T07:44:17;-0.90;1.00
27439;DHT22;14887;51.252;7.470;2024-01-15T07:46:46;-0.80;1.00
27439;DHT22;14887;51.252;7.470;2024-01-15T07:49:12;-0.80;1.00
27439;DHT22;14887;51.252;7.470;2024-01-15T07:51:38;-0.80;1.00
27439;DHT22;14887;51.252;7.470;2024-01-15T07:54:05;-0.80;1.00
27439;DHT22;14887;51.252;7.470;2024-01-15T07:56:31;-0.80;1.00
27439;DHT22;14887;51.252;7.470;2024-01-15T07:58:57;-0.80;1.00
27439;DHT22;14887;51.252;7.470;2024-01-15T08:01:22;-0.80;1.00
27439;DHT22;14887;51.252;7.470;2024-01-15T08:03:48;-0.70;1.00
27439;DHT22;14887;51.252;7.470;2024-01-15T08:06:13;-0.70;1.00
27439;DHT22;14887;51.252;7.470;2024-01-15T08:08:39;-0.80;1.00
27439;DHT22;14887;51.252;7.470;2024-01-15T08:11:05;-0.70;1.00
27439;DHT22;14887;51.252;7.470;2024-01-15T08:13:31;-0.70;1.00
27439;DHT22;14887;51.252;7.470;2024-01-15T08:15:56;-0.70;1.00
27439;DHT22;14887;51.252;7.470;2024-01-15T08:18:22;-0.70;1.00
27439;DHT22;14887;51.252;7.470;2024-01-15T08:20:47;-0.70;1.00
27439;DHT22;14887;51.252;7.470;2024-01-15T08:23:13;-0.70;1.00
27439;DHT22;14887;51.252;7.470;2024-01-15T08:25:39;-0.70;1.00
27439;DHT22;14887;51.252;7.470;2024-01-15T08:28:04;-0.80;1.00
27439;DHT22;14887;51.252;7.470;2024-01-15T08:30:30;-0.70;1.00
27439;DHT22;14887;51.252;7.470;2024-01-15T08:32:56;-0.70;1.00
27439;DHT22;14887;51.252;7.470;2024-01-15T08:35:22;-0.70;1.00
27439;DHT22;14887;51.252;7.470;2024-01-15T08:37:54;-0.70;1.00
27439;DHT22;14887;51.252;7.470;2024-01-15T08:40:20;-0.70;1.00
27439;DHT22;14887;51.252;7.470;2024-01-15T08:42:46;-0.60;1.00
27439;DHT22;14887;51.252;7.470;2024-01-15T08:45:11;-0.60;1.00
27439;DHT22;14887;51.252;7.470;2024-01-15T08:47:37;-0.60;1.00
27439;DHT22;14887;51.252;7.470;2024-01-15T08:50:04;-0.60;1.00
27439;DHT22;14887;51.252;7.470;2024-01-15T08:52:30;-0.60;1.00
27439;DHT22;14887;51.252;7.470;2024-01-15T08:54:56;-0.60;1.00
27439;DHT22;14887;51.252;7.470;2024-01-15T08:57:22;-0.60;1.00
27439;DHT22;14887;51.252;7.470;2024-01-15T08:59:47;-0.60;1.00
27439;DHT22;14887;51.252;7.470;2024-01-15T09:02:13;-0.70;1.00
27439;DHT22;14887;51.252;7.470;2024-01-15T09:04:39;-0.60;1.00
27439;DHT22;14887;51.252;7.470;2024-01-15T09:07:04;-0.60;1.00
27439;DHT22;14887;51.252;7.470;2024-01-15T09:09:30;-0.60;1.00
27439;DHT22;14887;51.252;7.470;2024-01-15T09:11:56;-0.60;1.00
27439;DHT22;14887;51.252;7.470;2024-01-15T09:14:21;-0.50;1.00
27439;DHT22;14887;51.252;7.470;2024-01-15T09:16:49;-0.50;1.00
27439;DHT22;14887;51.252;7.470;2024-01-15T09:19:15;-0.60;1.00
27439;DHT22;14887;51.252;7.470;2024-01-15T09:21:40;-0.50;1.00
27439;DHT22;14887;51.252;7.470;2024-01-15T09:24:06;-0.50;1.00
27439;DHT22;14887;51.252;7.470;2024-01-15T09:26:32;-0.30;1.00
27439;DHT22;14887;51.252;7.470;2024-01-15T09:28:57;-0.30;1.00
27439;DHT22;14887;51.252;7.470;2024-01-15T09:31:23;-0.40;1.00
27439;DHT22;14887;51.252;7.470;2024-01-15T09:33:49;-0.30;1.00
27439;DHT22;14887;51.252;7.470;2024-01-15T09:36:17;-0.40;1.00
27439;DHT22;14887;51.252;7.470;2024-01-15T09:38:43;-0.40;1.00
27439;DHT22;14887;51.252;7.470;2024-01-15T09:41:08;-0.40;1.00
27439;DHT22;14887;51.252;7.470;2024-01-15T09:43:35;-0.40;1.00
27439;DHT22;14887;51.252;7.470;2024-01-15T09:46:03;-0.30;1.00
27439;DHT22;14887;51.252;7.470;2024-01-15T09:48:29;-0.30;1.00
27439;DHT22;14887;51.252;7.470;2024-01-15T09:50:56;-0.40;1.00
27439;DHT22;14887;51.252;7.470;2024-01-15T09:53:24;-0.40;1.00
27439;DHT22;14887;51.252;7.470;2024-01-15T09:55:50;-0.50;1.00
27439;DHT22;14887;51.252;7.470;2024-01-15T09:58:18;-0.50;1.00
27439;DHT22;14887;51.252;7.470;2024-01-15T10:00:44;-0.50;1.00
27439;DHT22;14887;51.252;7.470;2024-01-15T10:03:10;-0.50;1.00
27439;DHT22;14887;51.252;7.470;2024-01-15T10:05:37;-0.50;1.00
27439;DHT22;14887;51.252;7.470;2024-01-15T10:08:04;-0.50;1.00
27439;DHT22;14887;51.252;7.470;2024-01-15T10:10:31;-0.40;1.00
27439;DHT22;14887;51.252;7.470;2024-01-15T10:12:58;-0.40;1.00
27439;DHT22;14887;51.252;7.470;2024-01-15T10:15:25;-0.40;1.00
27439;DHT22;14887;51.252;7.470;2024-01-15T10:17:51;-0.40;1.00
27439;DHT22;14887;51.252;7.470;2024-01-15T10:20:17;-0.40;1.00
27439;DHT22;14887;51.252;7.470;2024-01-15T10:22:43;-0.40;1.00
27439;DHT22;14887;51.252;7.470;2024-01-15T10:25:18;-0.30;1.00
27439;DHT22;14887;51.252;7.470;2024-01-15T10:27:59;-0.30;1.00
27439;DHT22;14887;51.252;7.470;2024-01-15T10:30:26;-0.30;1.00
27439;DHT22;14887;51.252;7.470;2024-01-15T10:33:02;-0.30;1.00
27439;DHT22;14887;51.252;7.470;2024-01-15T10:35:29;-0.30;1.00
27439;DHT22;14887;51.252;7.470;2024-01-15T10:37:55;-0.30;1.00
27439;DHT22;14887;51.252;7.470;2024-01-15T10:40:20;-0.40;1.00
27439;DHT22;14887;51.252;7.470;2024-01-15T10:42:46;-0.40;1.00
27439;DHT22;14887;51.252;7.470;2024-01-15T10:45:13;-0.40;1.00
27439;DHT22;14887;51.252;7.470;2024-01-15T10:47:39;-0.40;1.00
27439;DHT22;14887;51.252;7.470;2024-01-15T10:50:05;-0.50;1.00
27439;DHT22;14887;51.252;7.470;2024-01-15T10:52:36;-0.30;1.00
27439;DHT22;14887;51.252;7.470;2024-01-15T10:55:03;-0.20;1.00
27439;DHT22;14887;51.252;7.470;2024-01-15T10:57:30;-0.10;1.00
27439;DHT22;14887;51.252;7.470;2024-01-15T10:59:55;-0.10;1.00
27439;DHT22;14887;51.252;7.470;2024-01-15T11:02:21;-0.10;1.00
27439;DHT22;14887;51.252;7.470;2024-01-15T11:04:47;0.00;1.00
27439;DHT22;14887;51.252;7.470;2024-01-15T11:07:13;0.00;1.00
27439;DHT22;14887;51.252;7.470;2024-01-15T11:09:39;0.00;1.00
27439;DHT22;14887;51.252;7.470;2024-01-15T11:12:10;0.00;1.00
27439;DHT22;14887;51.252;7.470;2024-01-15T11:14:40;0.00;1.00
27439;DHT22;14887;51.252;7.470;2024-01-15T11:17:09;-0.10;1.00
27439;DHT22;14887;51.252;7.470;2024-01-15T11:19:45;-0.10;1.00
27439;DHT22;14887;51.252;7.470;2024-01-15T11:24:55;-0.40;1.00
27439;DHT22;14887;51.252;7.470;2024-01-15T11:27:48;-0.40;1.00
27439;DHT22;14887;51.252;7.470;2024-01-15T11:30:17;-0.40;1.00
27439;DHT22;14887;51.252;7.470;2024-01-15T11:32:43;-0.40;1.00
27439;DHT22;14887;51.252;7.470;2024-01-15T11:35:09;-0.40;1.00
27439;DHT22;14887;51.252;7.470;2024-01-15T11:40:21;-0.50;1.00
27439;DHT22;14887;51.252;7.470;2024-01-15T11:42:47;-0.60;1.00
27439;DHT22;14887;51.252;7.470;2024-01-15T11:45:18;-0.50;1.00
27439;DHT22;14887;51.252;7.470;2024-01-15T11:50:31;-0.40;1.00
27439;DHT22;14887;51.252;7.470;2024-01-15T11:53:01;-0.30;1.00
27439;DHT22;14887;51.252;7.470;2024-01-15T11:55:34;-0.30;1.00
27439;DHT22;14887;51.252;7.470;2024-01-15T11:58:02;-0.30;1.00
27439;DHT22;14887;51.252;7.470;2024-01-15T12:00:32;-0.40;1.00
27439;DHT22;14887;51.252;7.470;2024-01-15T12:02:58;-0.40;1.00
27439;DHT22;14887;51.252;7.470;2024-01-15T12:05:24;-0.40;1.00
27439;DHT22;14887;51.252;7.470;2024-01-15T12:07:50;-0.30;1.00
27439;DHT22;14887;51.252;7.470;2024-01-15T12:10:20;-0.30;1.00
27439;DHT22;14887;51.252;7.470;2024-01-15T12:13:12;-0.30;1.00
27439;DHT22;14887;51.252;7.470;2024-01-15T12:15:38;-0.10;1.00
27439;DHT22;14887;51.252;7.470;2024-01-15T12:18:08;-0.10;1.00
27439;DHT22;14887;51.252;7.470;2024-01-15T12:20:33;-0.30;1.00
27439;DHT22;14887;51.252;7.470;2024-01-15T12:23:00;-0.30;1.00
27439;DHT22;14887;51.252;7.470;2024-01-15T12:25:26;-0.40;1.00
27439;DHT22;14887;51.252;7.470;2024-01-15T12:27:53;-0.50;1.00
27439;DHT22;14887;51.252;7.470;2024-01-15T12:30:19;-0.40;1.00
27439;DHT22;14887;51.252;7.470;2024-01-15T12:32:45;-0.40;1.00
27439;DHT22;14887;51.252;7.470;2024-01-15T12:35:13;-0.40;1.00
27439;DHT22;14887;51.252;7.470;2024-01-15T12:37:40;-0.40;1.00
27439;DHT22;14887;51.252;7.470;2024-01-15T12:40:10;-0.40;1.00
27439;DHT22;14887;51.252;7.470;2024-01-15T12:42:36;-0.40;1.00
27439;DHT22;14887;51.252;7.470;2024-01-15T12:45:03;-0.40;1.00
27439;DHT22;14887;51.252;7.470;2024-01-15T12:47:30;-0.40;1.00
27439;DHT22;14887;51.252;7.470;2024-01-15T12:49:57;-0.50;1.00
27439;DHT22;14887;51.252;7.470;2024-01-15T12:52:26;-0.50;1.00
27439;DHT22;14887;51.252;7.470;2024-01-15T12:54:52;-0.60;1.00
27439;DHT22;14887;51.252;7.470;2024-01-15T12:57:18;-0.60;1.00
27439;DHT22;14887;51.252;7.470;2024-01-15T12:59:44;-0.50;1.00
27439;DHT22;14887;51.252;7.470;2024-01-15T13:02:11;-0.40;1.00
27439;DHT22;14887;51.252;7.470;2024-01-15T13:04:37;-0.50;1.00
27439;DHT22;14887;51.252;7.470;2024-01-15T13:07:02;-0.60;1.00
27439;DHT22;14887;51.252;7.470;2024-01-15T13:09:28;-0.50;1.00
27439;DHT22;14887;51.252;7.470;2024-01-15T13:11:55;-0.40;1.00
27439;DHT22;14887;51.252;7.470;2024-01-15T13:14:20;-0.30;1.00
27439;DHT22;14887;51.252;7.470;2024-01-15T13:16:46;-0.50;1.00
27439;DHT22;14887;51.252;7.470;2024-01-15T13:19:12;-0.20;1.00
27439;DHT22;14887;51.252;7.470;2024-01-15T13:21:39;-0.10;1.00
27439;DHT22;14887;51.252;7.470;2024-01-15T13:24:05;-0.40;1.00
27439;DHT22;14887;51.252;7.470;2024-01-15T13:26:32;-0.40;1.00
27439;DHT22;14887;51.252;7.470;2024-01-15T13:28:59;-0.50;1.00
27439;DHT22;14887;51.252;7.470;2024-01-15T13:31:25;-0.50;1.00
27439;DHT22;14887;51.252;7.470;2024-01-15T13:33:50;-0.50;1.00
27439;DHT22;14887;51.252;7.470;2024-01-15T13:36:16;-0.60;1.00
27439;DHT22;14887;51.252;7.470;2024-01-15T13:38:41;-0.60;1.00
27439;DHT22;14887;51.252;7.470;2024-01-15T13:41:08;-0.60;1.00
27439;DHT22;14887;51.252;7.470;2024-01-15T13:43:33;-0.60;1.00
27439;DHT22;14887;51.252;7.470;2024-01-15T13:45:59;-0.60;1.00
27439;DHT22;14887;51.252;7.470;2024-01-15T13:48:25;-0.60;1.00
27439;DHT22;14887;51.252;7.470;2024-01-15T13:50:52;-0.70;1.00
27439;DHT22;14887;51.252;7.470;2024-01-15T13:53:17;-0.70;1.00
27439;DHT22;14887;51.252;7.470;2024-01-15T13:55:44;-0.70;1.00
27439;DHT22;14887;51.252;7.470;2024-01-15T13:58:10;-0.60;1.00
27439;DHT22;14887;51.252;7.470;2024-01-15T14:00:36;-0.70;1.00
27439;DHT22;14887;51.252;7.470;2024-01-15T14:03:02;-0.70;1.00
27439;DHT22;14887;51.252;7.470;2024-01-15T14:05:27;-0.50;1.00
27439;DHT22;14887;51.252;7.470;2024-01-15T14:07:53;-0.40;1.00
27439;DHT22;14887;51.252;7.470;2024-01-15T14:10:18;-0.50;1.00
27439;DHT22;14887;51.252;7.470;2024-01-15T14:12:44;-0.50;1.00
27439;DHT22;14887;51.252;7.470;2024-01-15T14:15:09;-0.60;1.00
27439;DHT22;14887;51.252;7.470;2024-01-15T14:17:35;-0.60;1.00
27439;DHT22;14887;51.252;7.470;2024-01-15T14:20:01;-0.60;1.00
27439;DHT22;14887;51.252;7.470;2024-01-15T14:22:27;-0.60;1.00
27439;DHT22;14887;51.252;7.470;2024-01-15T14:24:52;-0.60;1.00
27439;DHT22;14887;51.252;7.470;2024-01-15T14:27:19;-0.60;1.00
27439;DHT22;14887;51.252;7.470;2024-01-15T14:29:44;-0.60;1.00
27439;DHT22;14887;51.252;7.470;2024-01-15T14:32:11;-0.60;1.00
27439;DHT22;14887;51.252;7.470;2024-01-15T14:34:37;-0.60;1.00
27439;DHT22;14887;51.252;7.470;2024-01-15T14:37:03;-0.60;1.00
27439;DHT22;14887;51.252;7.470;2024-01-15T14:39:28;-0.60;1.00
27439;DHT22;14887;51.252;7.470;2024-01-15T14:41:54;-0.60;1.00
27439;DHT22;14887;51.252;7.470;2024-01-15T14:44:19;-0.60;1.00
27439;DHT22;14887;51.252;7.470;2024-01-15T14:46:46;-0.70;1.00
27439;DHT22;14887;51.252;7.470;2024-01-15T14:49:11;-0.70;1.00
27439;DHT22;14887;51.252;7.470;2024-01-15T14:51:37;-0.70;1.00
27439;DHT22;14887;51.252;7.470;2024-01-15T14:54:02;-0.70;1.00
27439;DHT22;14887;51.252;7.470;2024-01-15T14:56:28;-0.70;1.00
27439;DHT22;14887;51.252;7.470;2024-01-15T14:58:54;-0.70;1.00
27439;DHT22;14887;51.252;7.470;2024-01-15T15:01:20;-0.70;1.00
27439;DHT22;14887;51.252;7.470;2024-01-15T15:03:45;-0.70;1.00
27439;DHT22;14887;51.252;7.470;2024-01-15T15:06:11;-0.80;1.00
27439;DHT22;14887;51.252;7.470;2024-01-15T15:08:37;-0.80;1.00
27439;DHT22;14887;51.252;7.470;2024-01-15T15:11:04;-0.80;1.00
27439;DHT22;14887;51.252;7.470;2024-01-15T15:13:29;-0.80;1.00
27439;DHT22;14887;51.252;7.470;2024-01-15T15:15:55;-0.80;1.00
27439;DHT22;14887;51.252;7.470;2024-01-15T15:18:21;-0.80;1.00
27439;DHT22;14887;51.252;7.470;2024-01-15T15:20:48;-0.80;1.00
27439;DHT22;14887;51.252;7.470;2024-01-15T15:23:13;-0.90;1.00
27439;DHT22;14887;51.252;7.470;2024-01-15T15:25:39;-0.90;1.00
27439;DHT22;14887;51.252;7.470;2024-01-15T15:28:05;-0.90;1.00
27439;DHT22;14887;51.252;7.470;2024-01-15T15:30:31;-0.90;1.00
27439;DHT22;14887;51.252;7.470;2024-01-15T15:32:57;-0.80;1.00
27439;DHT22;14887;51.252;7.470;2024-01-15T15:35:23;-0.90;1.00
27439;DHT22;14887;51.252;7.470;2024-01-15T15:37:48;-0.90;1.00
27439;DHT22;14887;51.252;7.470;2024-01-15T15:40:14;-0.90;1.00
27439;DHT22;14887;51.252;7.470;2024-01-15T15:42:40;-0.90;1.00
27439;DHT22;14887;51.252;7.470;2024-01-15T15:45:06;-1.00;1.00
27439;DHT22;14887;51.252;7.470;2024-01-15T15:47:32;-1.00;1.00
27439;DHT22;14887;51.252;7.470;2024-01-15T15:49:58;-1.00;1.00